This is the latest recevied weather packets stored in our database for station/object G6FJI-13. If no packets are shown the sender has not sent any weather packets the latest 10 day(s).
| Time | Temp. | Humidity | Pressure | Rain* | Wind** | Luminosity | Snow |
|---|---|---|---|---|---|---|---|
| 1777741724 | 14.44° C | 95% | 1015.3 hPa | 3.3 mm | - | 15 W/m² | - |
| 1777740525 | 14.44° C | 93% | 1015.6 hPa | 2.79 mm | - | 19 W/m² | - |
| 1777739326 | 15.56° C | 89% | 1015.7 hPa | 1.27 mm | - | 18 W/m² | - |
| 1777736304 | 19.44° C | 57% | 1015.4 hPa | 0 mm | - | 44 W/m² | - |
| 1777735653 | 19.44° C | 56% | 1015.5 hPa | 0 mm | - | 46 W/m² | - |
| 1777732686 | 20° C | 56% | 1016.4 hPa | 0 mm | - | 247 W/m² | - |
| 1777731488 | 20° C | 54% | 1016.8 hPa | 0 mm | - | 239 W/m² | - |
| 1777725450 | 20° C | 53% | 1018 hPa | 0 mm | - | 369 W/m² | - |
| 1777724234 | 20° C | 51% | 1018.2 hPa | 0 mm | - | 600 W/m² | - |
| 1777717038 | 17.78° C | 64% | 1019.8 hPa | 0 mm | - | 507 W/m² | - |
| 1777714639 | 16.11° C | 65% | 1020.4 hPa | 0 mm | - | 431 W/m² | - |
| 1777708567 | 11.67° C | 85% | 1021.2 hPa | 0 mm | - | 91 W/m² | - |
| 1777707924 | 11.67° C | 86% | 1021.2 hPa | 0 mm | - | 78 W/m² | - |
| 1777706724 | 10.56° C | 91% | 1021.1 hPa | 0 mm | - | 44 W/m² | - |
| 1777703111 | 9.44° C | 97% | 1021 hPa | 0 mm | - | 41 W/m² | - |
| 1777702487 | 8.89° C | 97% | 1021.3 hPa | 0 mm | - | 39 W/m² | - |
| 1777701931 | 8.89° C | 97% | 1021.3 hPa | 0 mm | - | 35 W/m² | - |
| 1777701268 | 8.33° C | 98% | 1021.1 hPa | 0 mm | - | 31 W/m² | - |
| 1777692798 | 8.33° C | 96% | 1021.7 hPa | 0 mm | - | 0 W/m² | - |
| 1777687281 | 8.89° C | 95% | 1021.7 hPa | 0 mm | - | 0 W/m² | - |
| 1777685526 | 9.44° C | 94% | 1021.8 hPa | 0 mm | - | 0 W/m² | - |
| 1777684883 | 9.44° C | 93% | 1021.8 hPa | 0 mm | - | 0 W/m² | - |
| 1777684327 | 10° C | 93% | 1022 hPa | 0 mm | - | 0 W/m² | - |
| 1777677688 | 12.22° C | 91% | 1022.6 hPa | 0 mm | - | 0 W/m² | - |
| 1777674651 | 13.89° C | 86% | 1022.6 hPa | 0 mm | - | 0 W/m² | - |
* Rain latest hour (hover to see other rain measurements)
** Current wind speed in m/s (hover to see current wind gust speed)